KDFI

Defiance Memorial Airport

Defiance, Ohio, USA
METAR KDFI 191153Z AUTO 18005KT 8SM CLR M03/M05 A3004 RMK AO2 SLP180 I1000 I6000 T10281050 11011 21044 58007
Observed Flight Rules
Dec-19 @ 11:53 UTC (11 minutes ago) Visual Flight Rules
Wind Visibility Clouds
180° at 5 knots 8 miles
  • Clear skies
Temperatures Readings
Current -3°C / 27°F
Dewpoint -5°C / 23°F
Humidity 86%
Altimeter 30.04" Hg
Pressure 1018 hPa
Elevation 219
METAR KDFI 191153Z AUTO 18005KT 8SM CLR M03/M05 A3004 RMK AO2 SLP180 I1000 I6000 T10281050 11011 21044 58007
Observed Flight Rules
Dec-19 @ 11:53 UTC
(11 minutes ago)
VFR
Wind Visibility
180° at 5 knots 8 miles
Clouds
  • Clear skies
Temperature Dewpoint
-3°C / 27°F -5°C / 23°F
Humidity Altimeter Pressure
86% 30.04" Hg 1018 hPa